LSZG Airport Information

Runway Information
Runway 07 Length 0 ft width 0 ft
Elevation 1407 ft Threshold 0 ft Heading 0
Runway 25 Length 0 ft Width 0 ft
Elevation 1407 ft Threshold 0 ft Heading 0
Runway 07C Length 3281 ft width 75 ft
Elevation 1407 ft Threshold 443 ft Heading 66
Runway 25C Length 3281 ft Width 75 ft
Elevation 1405 ft Threshold 0 ft Heading 246
Runway 07L Length 1640 ft width 98 ft
Elevation 0 ft Threshold 213 ft Heading 66
Runway 25R Length 1640 ft Width 98 ft
Elevation 0 ft Threshold 85 ft Heading 246
Runway 07R Length 2297 ft width 66 ft
Elevation 0 ft Threshold 459 ft Heading 70
Runway 25L Length 2297 ft Width 66 ft
Elevation 0 ft Threshold 0 ft Heading 250
Airport Frequencies
Type APP Name Bern Appro Frequency 127.325 MHZ
Type ATIS Name ATIS Frequency 121.1 MHZ
Type GND Name GND Frequency 121.8 MHZ
Type TWR Name ge, en Frequency 120.1 MHZ
Airport Navaids
Type VOR-DME Name Grenchen Frequency 115450 KHZ
Type NDB Name Grenchen Frequency 326 KHZ
Airport Weather Information & NOTAM
ADDS - METARS form results

(1905 UTC 22 June 2018)
 
METAR text: LSZG 221850Z AUTO 35013KT CAVOK 16/05 Q1024
Conditions at: LSZG (GRENCHEN , CH) observed 1850 UTC 22 June 2018
Temperature: 16.0°C (61°F)
Dewpoint: 5.0°C (41°F) [RH = 48%]
Pressure (altimeter): 30.24 inches Hg (1024.0 mb)
Winds: from the N (350 degrees) at 15 MPH (13 knots; 6.8 m/s)
Visibility: 6 or more miles (10+ km)
Ceiling: ceiling and visibility are OK
Clouds: unknown
Weather: no significant weather observed at this time

METAR text: LSZG 221820Z AUTO 01013KT CAVOK 17/05 Q1024
Conditions at: LSZG (GRENCHEN , CH) observed 1820 UTC 22 June 2018
Temperature: 17.0°C (63°F)
Dewpoint: 5.0°C (41°F) [RH = 45%]
Pressure (altimeter): 30.24 inches Hg (1024.0 mb)
Winds: from the N (10 degrees) at 15 MPH (13 knots; 6.8 m/s)
Visibility: 6 or more miles (10+ km)
Ceiling: ceiling and visibility are OK
Clouds: unknown
Weather: no significant weather observed at this time